Decoded Metar for KGJT (GRAND JUNCTION in CO, USA) (IATA:GJT) | Meteo·Mobile Aviation Weather
aviador You're here:

KGJT Decoded Metar

GRAND JUNCTION in CO, USA
Report Time2019-03-23 15:53:00
UTC Time2019-03-23 16:38:31
Flight Rules vfr VFR
Wind140° at 06 kt
W.Decomp.*RWY 11: 5.7 kt HW 1.8 kt RCW
RWY 04: 0.3 kt HW 6.0 kt RCW
W.Rank140° ranks 6
Current wind is below 140° avg. (8.3)
Visibility9999 m
Phenomena:N/A
Clouds:Few 033 Hf
Overcast 070 Hf
Expected CloudBase > 800 ft AGL from Temp-Dew spread
Ceiling7,000 ft
Temp04°C (ISA -1)
Dew Point02°C (87% RH)
AAT0.2°C
QNH1020 hPa
Density Alt4,547 ft
Elevation4,839 ft
Report Wrong Elevation
Raw Report
KGJT 231553Z 14006KT 10SM FEW033 OVC070 04/02 A3013 RMK AO2 SLP199
T00440022=

Extra information for KGJT:More info

Metar Taf Metar & Taf Last 4 Metars F.Rules Stats Wind Profile Meteogram Temp Stats Airport Information Weather charts Add Link Nearby VenuesMetar ALERT Operation Metar Decoded Social comments

AIRNAV info for KGJT